sensor_id;sensor_type;location;lat;lon;timestamp;temperature;humidity
4643;DHT22;2334;48.710;9.622;2023-07-20T00:01:31;21.00;99.90
4643;DHT22;2334;48.710;9.622;2023-07-20T00:03:58;21.00;99.90
4643;DHT22;2334;48.710;9.622;2023-07-20T00:06:25;21.00;99.90
4643;DHT22;2334;48.710;9.622;2023-07-20T00:08:53;20.90;99.90
4643;DHT22;2334;48.710;9.622;2023-07-20T00:11:20;20.90;99.90
4643;DHT22;2334;48.710;9.622;2023-07-20T00:13:47;20.90;99.90
4643;DHT22;2334;48.710;9.622;2023-07-20T00:16:14;20.90;99.90
4643;DHT22;2334;48.710;9.622;2023-07-20T00:18:42;20.90;99.90
4643;DHT22;2334;48.710;9.622;2023-07-20T00:21:09;20.90;99.90
4643;DHT22;2334;48.710;9.622;2023-07-20T00:23:36;20.90;99.90
4643;DHT22;2334;48.710;9.622;2023-07-20T00:26:03;20.90;99.90
4643;DHT22;2334;48.710;9.622;2023-07-20T00:28:29;20.90;99.90
4643;DHT22;2334;48.710;9.622;2023-07-20T00:30:56;20.80;99.90
4643;DHT22;2334;48.710;9.622;2023-07-20T00:33:25;20.80;99.90
4643;DHT22;2334;48.710;9.622;2023-07-20T00:35:53;20.80;99.90
4643;DHT22;2334;48.710;9.622;2023-07-20T00:38:20;20.70;99.90
4643;DHT22;2334;48.710;9.622;2023-07-20T00:40:47;20.70;99.90
4643;DHT22;2334;48.710;9.622;2023-07-20T00:43:15;20.80;99.90
4643;DHT22;2334;48.710;9.622;2023-07-20T00:45:42;20.60;99.90
4643;DHT22;2334;48.710;9.622;2023-07-20T00:48:10;20.60;99.90
4643;DHT22;2334;48.710;9.622;2023-07-20T00:50:39;20.60;99.90
4643;DHT22;2334;48.710;9.622;2023-07-20T00:53:08;20.60;99.90
4643;DHT22;2334;48.710;9.622;2023-07-20T00:55:35;20.70;99.90
4643;DHT22;2334;48.710;9.622;2023-07-20T00:58:02;20.60;99.90
4643;DHT22;2334;48.710;9.622;2023-07-20T01:00:30;20.50;99.90
4643;DHT22;2334;48.710;9.622;2023-07-20T01:02:57;20.50;99.90
4643;DHT22;2334;48.710;9.622;2023-07-20T01:05:28;20.50;99.90
4643;DHT22;2334;48.710;9.622;2023-07-20T01:08:00;20.40;99.90
4643;DHT22;2334;48.710;9.622;2023-07-20T01:10:35;20.30;99.90
4643;DHT22;2334;48.710;9.622;2023-07-20T01:13:07;20.30;99.90
4643;DHT22;2334;48.710;9.622;2023-07-20T01:15:34;20.30;99.90
4643;DHT22;2334;48.710;9.622;2023-07-20T01:18:01;20.20;99.90
4643;DHT22;2334;48.710;9.622;2023-07-20T01:20:31;20.10;99.90
4643;DHT22;2334;48.710;9.622;2023-07-20T01:26:19;20.00;99.90
4643;DHT22;2334;48.710;9.622;2023-07-20T01:29:21;19.90;99.90
4643;DHT22;2334;48.710;9.622;2023-07-20T01:31:52;19.90;99.90
4643;DHT22;2334;48.710;9.622;2023-07-20T01:34:23;19.80;99.90
4643;DHT22;2334;48.710;9.622;2023-07-20T01:36:52;19.90;99.90
4643;DHT22;2334;48.710;9.622;2023-07-20T01:39:21;19.90;99.90
4643;DHT22;2334;48.710;9.622;2023-07-20T01:41:48;19.80;99.90
4643;DHT22;2334;48.710;9.622;2023-07-20T01:44:15;19.80;99.90
4643;DHT22;2334;48.710;9.622;2023-07-20T01:46:42;19.70;99.90
4643;DHT22;2334;48.710;9.622;2023-07-20T01:49:10;19.70;99.90
4643;DHT22;2334;48.710;9.622;2023-07-20T01:51:37;19.70;99.90
4643;DHT22;2334;48.710;9.622;2023-07-20T01:54:04;19.70;99.90
4643;DHT22;2334;48.710;9.622;2023-07-20T01:56:31;19.70;99.90
4643;DHT22;2334;48.710;9.622;2023-07-20T01:58:58;19.70;99.90
4643;DHT22;2334;48.710;9.622;2023-07-20T02:01:24;19.60;99.90
4643;DHT22;2334;48.710;9.622;2023-07-20T02:03:54;19.70;99.90
4643;DHT22;2334;48.710;9.622;2023-07-20T02:06:22;19.70;99.90
4643;DHT22;2334;48.710;9.622;2023-07-20T02:08:49;19.60;99.90
4643;DHT22;2334;48.710;9.622;2023-07-20T02:11:16;19.70;99.90
4643;DHT22;2334;48.710;9.622;2023-07-20T02:13:43;19.60;99.90
4643;DHT22;2334;48.710;9.622;2023-07-20T02:16:11;19.50;99.90
4643;DHT22;2334;48.710;9.622;2023-07-20T02:18:38;19.40;99.90
4643;DHT22;2334;48.710;9.622;2023-07-20T02:21:05;19.30;99.90
4643;DHT22;2334;48.710;9.622;2023-07-20T02:23:33;19.40;99.90
4643;DHT22;2334;48.710;9.622;2023-07-20T02:26:00;19.30;99.90
4643;DHT22;2334;48.710;9.622;2023-07-20T02:28:27;19.20;99.90
4643;DHT22;2334;48.710;9.622;2023-07-20T02:30:54;19.10;99.90
4643;DHT22;2334;48.710;9.622;2023-07-20T02:33:21;19.10;99.90
4643;DHT22;2334;48.710;9.622;2023-07-20T02:35:48;18.90;99.90
4643;DHT22;2334;48.710;9.622;2023-07-20T02:38:15;18.80;99.90
4643;DHT22;2334;48.710;9.622;2023-07-20T02:40:43;18.90;99.90
4643;DHT22;2334;48.710;9.622;2023-07-20T02:43:10;18.80;99.90
4643;DHT22;2334;48.710;9.622;2023-07-20T02:45:40;18.80;99.90
4643;DHT22;2334;48.710;9.622;2023-07-20T02:48:07;18.80;99.90
4643;DHT22;2334;48.710;9.622;2023-07-20T02:50:34;18.80;99.90
4643;DHT22;2334;48.710;9.622;2023-07-20T02:53:01;18.80;99.90
4643;DHT22;2334;48.710;9.622;2023-07-20T02:55:28;18.70;99.90
4643;DHT22;2334;48.710;9.622;2023-07-20T02:57:56;18.60;99.90
4643;DHT22;2334;48.710;9.622;2023-07-20T03:00:23;18.60;99.90
4643;DHT22;2334;48.710;9.622;2023-07-20T03:02:51;18.50;99.90
4643;DHT22;2334;48.710;9.622;2023-07-20T03:05:21;18.50;99.90
4643;DHT22;2334;48.710;9.622;2023-07-20T03:07:48;18.50;99.90
4643;DHT22;2334;48.710;9.622;2023-07-20T03:10:15;18.50;99.90
4643;DHT22;2334;48.710;9.622;2023-07-20T03:12:42;18.40;99.90
4643;DHT22;2334;48.710;9.622;2023-07-20T03:15:11;18.40;99.90
4643;DHT22;2334;48.710;9.622;2023-07-20T03:17:38;18.30;99.90
4643;DHT22;2334;48.710;9.622;2023-07-20T03:20:06;18.30;99.90
4643;DHT22;2334;48.710;9.622;2023-07-20T03:22:35;18.20;99.90
4643;DHT22;2334;48.710;9.622;2023-07-20T03:25:03;18.10;99.90
4643;DHT22;2334;48.710;9.622;2023-07-20T03:27:30;18.00;99.90
4643;DHT22;2334;48.710;9.622;2023-07-20T03:29:56;18.00;99.90
4643;DHT22;2334;48.710;9.622;2023-07-20T03:32:25;18.00;99.90
4643;DHT22;2334;48.710;9.622;2023-07-20T03:34:51;18.00;99.90
4643;DHT22;2334;48.710;9.622;2023-07-20T03:37:18;18.00;99.90
4643;DHT22;2334;48.710;9.622;2023-07-20T03:39:45;18.00;99.90
4643;DHT22;2334;48.710;9.622;2023-07-20T03:42:12;18.00;99.90
4643;DHT22;2334;48.710;9.622;2023-07-20T03:44:39;18.00;99.90
4643;DHT22;2334;48.710;9.622;2023-07-20T03:47:06;17.80;99.90
4643;DHT22;2334;48.710;9.622;2023-07-20T03:49:34;17.60;99.90
4643;DHT22;2334;48.710;9.622;2023-07-20T03:52:02;17.60;99.90
4643;DHT22;2334;48.710;9.622;2023-07-20T03:54:30;17.40;99.90
4643;DHT22;2334;48.710;9.622;2023-07-20T03:56:56;17.40;99.90
4643;DHT22;2334;48.710;9.622;2023-07-20T03:59:23;17.40;99.90
4643;DHT22;2334;48.710;9.622;2023-07-20T04:01:50;17.40;99.90
4643;DHT22;2334;48.710;9.622;2023-07-20T04:04:17;17.30;99.90
4643;DHT22;2334;48.710;9.622;2023-07-20T04:06:46;17.30;99.90
4643;DHT22;2334;48.710;9.622;2023-07-20T04:09:13;17.20;99.90
4643;DHT22;2334;48.710;9.622;2023-07-20T04:11:40;17.20;99.90
4643;DHT22;2334;48.710;9.622;2023-07-20T04:14:07;17.10;99.90
4643;DHT22;2334;48.710;9.622;2023-07-20T04:16:33;17.20;99.90
4643;DHT22;2334;48.710;9.622;2023-07-20T04:19:00;17.10;99.90
4643;DHT22;2334;48.710;9.622;2023-07-20T04:21:27;17.00;99.90
4643;DHT22;2334;48.710;9.622;2023-07-20T04:23:56;17.00;99.90
4643;DHT22;2334;48.710;9.622;2023-07-20T04:26:23;17.10;99.90
4643;DHT22;2334;48.710;9.622;2023-07-20T04:28:50;17.20;99.90
4643;DHT22;2334;48.710;9.622;2023-07-20T04:31:18;17.20;99.90
4643;DHT22;2334;48.710;9.622;2023-07-20T04:33:45;17.20;99.90
4643;DHT22;2334;48.710;9.622;2023-07-20T04:36:12;17.30;99.90
4643;DHT22;2334;48.710;9.622;2023-07-20T04:38:42;17.20;99.90
4643;DHT22;2334;48.710;9.622;2023-07-20T04:41:10;17.20;99.90
4643;DHT22;2334;48.710;9.622;2023-07-20T04:43:41;17.30;99.90
4643;DHT22;2334;48.710;9.622;2023-07-20T04:46:08;17.40;99.90
4643;DHT22;2334;48.710;9.622;2023-07-20T04:48:35;17.30;99.90
4643;DHT22;2334;48.710;9.622;2023-07-20T04:51:02;17.10;99.90
4643;DHT22;2334;48.710;9.622;2023-07-20T04:53:29;17.00;99.90
4643;DHT22;2334;48.710;9.622;2023-07-20T04:55:56;16.90;99.90
4643;DHT22;2334;48.710;9.622;2023-07-20T04:58:24;16.90;99.90
4643;DHT22;2334;48.710;9.622;2023-07-20T05:00:51;17.00;99.90
4643;DHT22;2334;48.710;9.622;2023-07-20T05:03:18;17.10;99.90
4643;DHT22;2334;48.710;9.622;2023-07-20T05:05:47;17.30;99.90
4643;DHT22;2334;48.710;9.622;2023-07-20T05:08:14;17.40;99.90
4643;DHT22;2334;48.710;9.622;2023-07-20T05:10:41;17.50;99.90
4643;DHT22;2334;48.710;9.622;2023-07-20T05:13:08;17.50;99.90
4643;DHT22;2334;48.710;9.622;2023-07-20T05:15:36;17.60;99.90
4643;DHT22;2334;48.710;9.622;2023-07-20T05:18:04;17.70;99.90
4643;DHT22;2334;48.710;9.622;2023-07-20T05:20:31;17.70;99.90
4643;DHT22;2334;48.710;9.622;2023-07-20T05:22:59;17.80;99.90
4643;DHT22;2334;48.710;9.622;2023-07-20T05:25:26;17.90;99.90
4643;DHT22;2334;48.710;9.622;2023-07-20T05:27:53;18.00;99.90
4643;DHT22;2334;48.710;9.622;2023-07-20T05:30:21;17.90;99.90
4643;DHT22;2334;48.710;9.622;2023-07-20T05:32:49;17.90;99.90
4643;DHT22;2334;48.710;9.622;2023-07-20T05:35:17;18.10;99.90
4643;DHT22;2334;48.710;9.622;2023-07-20T05:37:44;18.20;99.90
4643;DHT22;2334;48.710;9.622;2023-07-20T05:40:12;18.30;99.90
4643;DHT22;2334;48.710;9.622;2023-07-20T05:42:40;18.50;99.90
4643;DHT22;2334;48.710;9.622;2023-07-20T05:45:07;18.60;99.90
4643;DHT22;2334;48.710;9.622;2023-07-20T05:47:34;18.60;99.90
4643;DHT22;2334;48.710;9.622;2023-07-20T05:50:02;18.60;99.90
4643;DHT22;2334;48.710;9.622;2023-07-20T05:52:30;18.70;99.90
4643;DHT22;2334;48.710;9.622;2023-07-20T05:54:57;18.90;99.90
4643;DHT22;2334;48.710;9.622;2023-07-20T05:57:24;19.00;99.90
4643;DHT22;2334;48.710;9.622;2023-07-20T05:59:50;19.00;99.90
4643;DHT22;2334;48.710;9.622;2023-07-20T06:02:17;19.00;99.90
4643;DHT22;2334;48.710;9.622;2023-07-20T06:04:45;19.10;99.90
4643;DHT22;2334;48.710;9.622;2023-07-20T06:07:13;19.10;99.90
4643;DHT22;2334;48.710;9.622;2023-07-20T06:09:40;19.10;99.90
4643;DHT22;2334;48.710;9.622;2023-07-20T06:12:08;19.20;99.90
4643;DHT22;2334;48.710;9.622;2023-07-20T06:14:35;19.20;99.90
4643;DHT22;2334;48.710;9.622;2023-07-20T06:17:02;19.20;99.90
4643;DHT22;2334;48.710;9.622;2023-07-20T06:19:29;19.20;99.90
4643;DHT22;2334;48.710;9.622;2023-07-20T06:21:56;19.40;99.90
4643;DHT22;2334;48.710;9.622;2023-07-20T06:24:24;19.40;99.90
4643;DHT22;2334;48.710;9.622;2023-07-20T06:26:51;19.50;99.90
4643;DHT22;2334;48.710;9.622;2023-07-20T06:29:18;19.50;99.90
4643;DHT22;2334;48.710;9.622;2023-07-20T06:31:45;19.60;99.90
4643;DHT22;2334;48.710;9.622;2023-07-20T06:34:11;19.70;99.90
4643;DHT22;2334;48.710;9.622;2023-07-20T06:36:38;19.70;99.90
4643;DHT22;2334;48.710;9.622;2023-07-20T06:39:05;19.70;99.90
4643;DHT22;2334;48.710;9.622;2023-07-20T06:41:33;19.80;99.90
4643;DHT22;2334;48.710;9.622;2023-07-20T06:44:02;19.80;99.90
4643;DHT22;2334;48.710;9.622;2023-07-20T06:46:29;19.90;99.90
4643;DHT22;2334;48.710;9.622;2023-07-20T06:48:56;19.90;99.90
4643;DHT22;2334;48.710;9.622;2023-07-20T06:51:22;20.00;99.90
4643;DHT22;2334;48.710;9.622;2023-07-20T06:53:49;20.00;99.90
4643;DHT22;2334;48.710;9.622;2023-07-20T06:56:16;20.10;99.90
4643;DHT22;2334;48.710;9.622;2023-07-20T06:58:44;20.30;99.90
4643;DHT22;2334;48.710;9.622;2023-07-20T07:01:11;20.30;99.90
4643;DHT22;2334;48.710;9.622;2023-07-20T07:03:38;20.40;99.90
4643;DHT22;2334;48.710;9.622;2023-07-20T07:06:05;20.60;99.90
4643;DHT22;2334;48.710;9.622;2023-07-20T07:08:32;20.50;99.90
4643;DHT22;2334;48.710;9.622;2023-07-20T07:10:59;20.60;99.90
4643;DHT22;2334;48.710;9.622;2023-07-20T07:13:26;20.20;99.90
4643;DHT22;2334;48.710;9.622;2023-07-20T07:15:54;20.30;99.90
4643;DHT22;2334;48.710;9.622;2023-07-20T07:18:21;20.40;99.90
4643;DHT22;2334;48.710;9.622;2023-07-20T07:20:52;20.60;99.90
4643;DHT22;2334;48.710;9.622;2023-07-20T07:23:19;20.80;99.90
4643;DHT22;2334;48.710;9.622;2023-07-20T07:25:47;20.90;99.90
4643;DHT22;2334;48.710;9.622;2023-07-20T07:28:14;21.20;99.90
4643;DHT22;2334;48.710;9.622;2023-07-20T07:30:41;21.50;99.90
4643;DHT22;2334;48.710;9.622;2023-07-20T07:33:09;21.50;99.90
4643;DHT22;2334;48.710;9.622;2023-07-20T07:35:36;21.60;99.90
4643;DHT22;2334;48.710;9.622;2023-07-20T07:38:03;21.60;99.90
4643;DHT22;2334;48.710;9.622;2023-07-20T07:40:30;21.70;99.90
4643;DHT22;2334;48.710;9.622;2023-07-20T07:42:57;21.70;99.90
4643;DHT22;2334;48.710;9.622;2023-07-20T07:45:24;21.70;99.90
4643;DHT22;2334;48.710;9.622;2023-07-20T07:47:51;21.90;99.90
4643;DHT22;2334;48.710;9.622;2023-07-20T07:50:19;21.80;99.90
4643;DHT22;2334;48.710;9.622;2023-07-20T07:52:46;21.90;99.90
4643;DHT22;2334;48.710;9.622;2023-07-20T07:55:13;21.60;99.90
4643;DHT22;2334;48.710;9.622;2023-07-20T07:57:42;21.70;99.90
4643;DHT22;2334;48.710;9.622;2023-07-20T08:00:10;22.00;99.90
4643;DHT22;2334;48.710;9.622;2023-07-20T08:02:40;22.50;99.90
4643;DHT22;2334;48.710;9.622;2023-07-20T08:05:08;22.50;99.90
4643;DHT22;2334;48.710;9.622;2023-07-20T08:07:36;22.20;99.90
4643;DHT22;2334;48.710;9.622;2023-07-20T08:10:04;22.30;99.90
4643;DHT22;2334;48.710;9.622;2023-07-20T08:12:31;22.70;99.90
4643;DHT22;2334;48.710;9.622;2023-07-20T08:14:58;23.10;99.90
4643;DHT22;2334;48.710;9.622;2023-07-20T08:17:25;22.90;99.90
4643;DHT22;2334;48.710;9.622;2023-07-20T08:19:52;22.80;99.90
4643;DHT22;2334;48.710;9.622;2023-07-20T08:22:19;23.00;99.90
4643;DHT22;2334;48.710;9.622;2023-07-20T08:24:47;23.30;99.90
4643;DHT22;2334;48.710;9.622;2023-07-20T08:27:14;23.10;99.90
4643;DHT22;2334;48.710;9.622;2023-07-20T08:29:41;23.00;99.90
4643;DHT22;2334;48.710;9.622;2023-07-20T08:32:08;23.40;99.90
4643;DHT22;2334;48.710;9.622;2023-07-20T08:34:35;23.40;99.90
4643;DHT22;2334;48.710;9.622;2023-07-20T08:37:02;23.20;99.90
4643;DHT22;2334;48.710;9.622;2023-07-20T08:39:29;23.20;99.90
4643;DHT22;2334;48.710;9.622;2023-07-20T08:42:00;23.60;99.90
4643;DHT22;2334;48.710;9.622;2023-07-20T08:44:32;24.10;99.90
4643;DHT22;2334;48.710;9.622;2023-07-20T08:47:00;24.00;99.90
4643;DHT22;2334;48.710;9.622;2023-07-20T08:49:29;23.80;99.90
4643;DHT22;2334;48.710;9.622;2023-07-20T08:51:56;24.10;99.90
4643;DHT22;2334;48.710;9.622;2023-07-20T08:54:25;23.90;99.90
4643;DHT22;2334;48.710;9.622;2023-07-20T08:56:58;24.00;99.90
4643;DHT22;2334;48.710;9.622;2023-07-20T08:59:28;23.90;99.90
4643;DHT22;2334;48.710;9.622;2023-07-20T09:01:56;24.30;99.90
4643;DHT22;2334;48.710;9.622;2023-07-20T09:04:24;24.00;99.90
4643;DHT22;2334;48.710;9.622;2023-07-20T09:06:51;24.40;99.90
4643;DHT22;2334;48.710;9.622;2023-07-20T09:09:18;24.20;99.90
4643;DHT22;2334;48.710;9.622;2023-07-20T09:11:48;24.40;99.90
4643;DHT22;2334;48.710;9.622;2023-07-20T09:14:17;24.30;99.90
4643;DHT22;2334;48.710;9.622;2023-07-20T09:16:47;24.40;99.90
4643;DHT22;2334;48.710;9.622;2023-07-20T09:19:15;24.40;99.90
4643;DHT22;2334;48.710;9.622;2023-07-20T09:21:44;24.50;99.90
4643;DHT22;2334;48.710;9.622;2023-07-20T09:24:13;25.00;99.90
4643;DHT22;2334;48.710;9.622;2023-07-20T09:26:44;24.60;99.90
4643;DHT22;2334;48.710;9.622;2023-07-20T09:29:11;24.90;99.90
4643;DHT22;2334;48.710;9.622;2023-07-20T09:31:39;25.00;99.90
4643;DHT22;2334;48.710;9.622;2023-07-20T09:34:07;24.80;99.90
4643;DHT22;2334;48.710;9.622;2023-07-20T09:36:34;24.80;99.90
4643;DHT22;2334;48.710;9.622;2023-07-20T09:39:02;24.70;99.50
4643;DHT22;2334;48.710;9.622;2023-07-20T09:41:30;25.10;99.80
4643;DHT22;2334;48.710;9.622;2023-07-20T09:43:56;25.20;99.90
4643;DHT22;2334;48.710;9.622;2023-07-20T09:46:23;25.40;99.70
4643;DHT22;2334;48.710;9.622;2023-07-20T09:48:55;25.80;99.50
4643;DHT22;2334;48.710;9.622;2023-07-20T09:51:23;25.90;98.70
4643;DHT22;2334;48.710;9.622;2023-07-20T09:53:52;25.60;99.10
4643;DHT22;2334;48.710;9.622;2023-07-20T09:56:21;25.90;98.70
4643;DHT22;2334;48.710;9.622;2023-07-20T09:58:49;26.00;99.30
4643;DHT22;2334;48.710;9.622;2023-07-20T10:01:20;25.30;99.20
4643;DHT22;2334;48.710;9.622;2023-07-20T10:03:48;25.30;99.40
4643;DHT22;2334;48.710;9.622;2023-07-20T10:06:22;25.50;99.60
4643;DHT22;2334;48.710;9.622;2023-07-20T10:08:52;25.50;99.60
4643;DHT22;2334;48.710;9.622;2023-07-20T10:11:22;25.00;99.90
4643;DHT22;2334;48.710;9.622;2023-07-20T10:13:51;25.20;99.90
4643;DHT22;2334;48.710;9.622;2023-07-20T10:16:24;25.20;99.70
4643;DHT22;2334;48.710;9.622;2023-07-20T10:19:01;25.30;99.80
4643;DHT22;2334;48.710;9.622;2023-07-20T10:21:31;24.90;98.90
4643;DHT22;2334;48.710;9.622;2023-07-20T10:23:59;24.90;98.90
4643;DHT22;2334;48.710;9.622;2023-07-20T10:26:27;25.00;98.40
4643;DHT22;2334;48.710;9.622;2023-07-20T10:28:54;25.20;98.50
4643;DHT22;2334;48.710;9.622;2023-07-20T10:31:23;25.70;98.90
4643;DHT22;2334;48.710;9.622;2023-07-20T10:33:50;26.10;98.90
4643;DHT22;2334;48.710;9.622;2023-07-20T10:36:24;26.00;98.40
4643;DHT22;2334;48.710;9.622;2023-07-20T10:38:55;26.10;97.70
4643;DHT22;2334;48.710;9.622;2023-07-20T10:41:28;26.10;97.70
4643;DHT22;2334;48.710;9.622;2023-07-20T10:43:59;26.20;96.70
4643;DHT22;2334;48.710;9.622;2023-07-20T10:46:35;26.20;95.90
4643;DHT22;2334;48.710;9.622;2023-07-20T10:49:09;26.40;96.40
4643;DHT22;2334;48.710;9.622;2023-07-20T10:51:39;26.70;96.50
4643;DHT22;2334;48.710;9.622;2023-07-20T10:54:10;26.70;95.90
4643;DHT22;2334;48.710;9.622;2023-07-20T10:56:57;26.80;96.40
4643;DHT22;2334;48.710;9.622;2023-07-20T10:59:37;27.90;95.50
4643;DHT22;2334;48.710;9.622;2023-07-20T11:02:06;27.80;95.20
4643;DHT22;2334;48.710;9.622;2023-07-20T11:04:40;27.60;95.50
4643;DHT22;2334;48.710;9.622;2023-07-20T11:07:08;27.30;95.30
4643;DHT22;2334;48.710;9.622;2023-07-20T11:09:37;26.90;96.10
4643;DHT22;2334;48.710;9.622;2023-07-20T11:12:11;26.30;96.10
4643;DHT22;2334;48.710;9.622;2023-07-20T11:14:40;26.20;96.30
4643;DHT22;2334;48.710;9.622;2023-07-20T11:17:11;26.30;97.00
4643;DHT22;2334;48.710;9.622;2023-07-20T11:19:39;26.70;96.70
4643;DHT22;2334;48.710;9.622;2023-07-20T11:22:06;26.90;96.00
4643;DHT22;2334;48.710;9.622;2023-07-20T11:24:38;27.20;95.90
4643;DHT22;2334;48.710;9.622;2023-07-20T11:27:06;27.40;94.60
4643;DHT22;2334;48.710;9.622;2023-07-20T11:29:33;27.50;94.70
4643;DHT22;2334;48.710;9.622;2023-07-20T11:32:00;27.50;95.40
4643;DHT22;2334;48.710;9.622;2023-07-20T11:34:30;27.60;94.10
4643;DHT22;2334;48.710;9.622;2023-07-20T11:36:57;27.50;93.90
4643;DHT22;2334;48.710;9.622;2023-07-20T11:39:24;27.30;93.60
4643;DHT22;2334;48.710;9.622;2023-07-20T11:41:54;27.50;92.80
4643;DHT22;2334;48.710;9.622;2023-07-20T11:44:22;27.60;92.00
4643;DHT22;2334;48.710;9.622;2023-07-20T11:46:59;27.80;93.40
4643;DHT22;2334;48.710;9.622;2023-07-20T11:49:28;27.60;93.20
4643;DHT22;2334;48.710;9.622;2023-07-20T11:51:56;27.20;93.30
4643;DHT22;2334;48.710;9.622;2023-07-20T11:54:24;26.80;93.50
4643;DHT22;2334;48.710;9.622;2023-07-20T11:56:55;27.00;93.90
4643;DHT22;2334;48.710;9.622;2023-07-20T11:59:22;27.70;93.40
4643;DHT22;2334;48.710;9.622;2023-07-20T12:01:49;28.00;92.60
4643;DHT22;2334;48.710;9.622;2023-07-20T12:04:16;28.30;92.70
4643;DHT22;2334;48.710;9.622;2023-07-20T12:06:45;28.10;92.70
4643;DHT22;2334;48.710;9.622;2023-07-20T12:09:14;28.00;92.80
4643;DHT22;2334;48.710;9.622;2023-07-20T12:11:44;28.30;92.50
4643;DHT22;2334;48.710;9.622;2023-07-20T12:14:12;28.60;91.60
4643;DHT22;2334;48.710;9.622;2023-07-20T12:16:39;28.40;91.30
4643;DHT22;2334;48.710;9.622;2023-07-20T12:19:08;28.00;91.80
4643;DHT22;2334;48.710;9.622;2023-07-20T12:21:37;28.00;91.20
4643;DHT22;2334;48.710;9.622;2023-07-20T12:24:04;28.20;91.20
4643;DHT22;2334;48.710;9.622;2023-07-20T12:26:32;28.10;91.20
4643;DHT22;2334;48.710;9.622;2023-07-20T12:29:00;28.50;90.70
4643;DHT22;2334;48.710;9.622;2023-07-20T12:31:28;28.30;90.50
4643;DHT22;2334;48.710;9.622;2023-07-20T12:33:57;27.90;90.70
4643;DHT22;2334;48.710;9.622;2023-07-20T12:36:24;28.00;90.70
4643;DHT22;2334;48.710;9.622;2023-07-20T12:38:51;28.40;90.60
4643;DHT22;2334;48.710;9.622;2023-07-20T12:41:18;28.50;90.40
4643;DHT22;2334;48.710;9.622;2023-07-20T12:43:45;29.00;91.10
4643;DHT22;2334;48.710;9.622;2023-07-20T12:46:13;29.60;88.40
4643;DHT22;2334;48.710;9.622;2023-07-20T12:48:41;29.80;87.90
4643;DHT22;2334;48.710;9.622;2023-07-20T12:51:09;29.10;88.00
4643;DHT22;2334;48.710;9.622;2023-07-20T12:53:37;28.50;88.80
4643;DHT22;2334;48.710;9.622;2023-07-20T12:56:05;28.70;89.00
4643;DHT22;2334;48.710;9.622;2023-07-20T12:58:35;28.60;88.30
4643;DHT22;2334;48.710;9.622;2023-07-20T13:01:02;28.80;86.90
4643;DHT22;2334;48.710;9.622;2023-07-20T13:03:29;28.30;88.70
4643;DHT22;2334;48.710;9.622;2023-07-20T13:05:59;28.10;88.40
4643;DHT22;2334;48.710;9.622;2023-07-20T13:08:26;27.50;89.20
4643;DHT22;2334;48.710;9.622;2023-07-20T13:10:53;27.70;89.60
4643;DHT22;2334;48.710;9.622;2023-07-20T13:13:20;27.60;87.90
4643;DHT22;2334;48.710;9.622;2023-07-20T13:15:46;28.40;89.10
4643;DHT22;2334;48.710;9.622;2023-07-20T13:18:14;28.60;88.30
4643;DHT22;2334;48.710;9.622;2023-07-20T13:20:41;29.00;86.30
4643;DHT22;2334;48.710;9.622;2023-07-20T13:23:10;29.10;86.20
4643;DHT22;2334;48.710;9.622;2023-07-20T13:25:37;29.50;85.00
4643;DHT22;2334;48.710;9.622;2023-07-20T13:28:05;29.40;85.40
4643;DHT22;2334;48.710;9.622;2023-07-20T13:30:31;29.70;84.20
4643;DHT22;2334;48.710;9.622;2023-07-20T13:32:59;29.70;83.90
4643;DHT22;2334;48.710;9.622;2023-07-20T13:35:26;29.50;85.20
4643;DHT22;2334;48.710;9.622;2023-07-20T13:37:52;29.10;84.30
4643;DHT22;2334;48.710;9.622;2023-07-20T13:40:21;29.90;83.30
4643;DHT22;2334;48.710;9.622;2023-07-20T13:42:48;30.00;82.90
4643;DHT22;2334;48.710;9.622;2023-07-20T13:45:15;29.70;82.30
4643;DHT22;2334;48.710;9.622;2023-07-20T13:47:43;29.70;81.90
4643;DHT22;2334;48.710;9.622;2023-07-20T13:50:10;29.80;81.60
4643;DHT22;2334;48.710;9.622;2023-07-20T13:52:37;29.80;81.40
4643;DHT22;2334;48.710;9.622;2023-07-20T13:55:04;29.30;83.20
4643;DHT22;2334;48.710;9.622;2023-07-20T13:57:32;29.30;82.70
4643;DHT22;2334;48.710;9.622;2023-07-20T13:59:59;29.20;83.90
4643;DHT22;2334;48.710;9.622;2023-07-20T14:02:27;29.70;82.70
4643;DHT22;2334;48.710;9.622;2023-07-20T14:04:54;30.50;80.70
4643;DHT22;2334;48.710;9.622;2023-07-20T14:07:21;30.90;79.60
4643;DHT22;2334;48.710;9.622;2023-07-20T14:09:49;31.20;78.60
4643;DHT22;2334;48.710;9.622;2023-07-20T14:12:16;31.00;78.90
4643;DHT22;2334;48.710;9.622;2023-07-20T14:14:44;31.30;78.70
4643;DHT22;2334;48.710;9.622;2023-07-20T14:17:11;30.30;80.20
4643;DHT22;2334;48.710;9.622;2023-07-20T14:19:38;29.60;78.70
4643;DHT22;2334;48.710;9.622;2023-07-20T14:22:05;29.30;79.70
4643;DHT22;2334;48.710;9.622;2023-07-20T14:24:32;29.40;80.20
4643;DHT22;2334;48.710;9.622;2023-07-20T14:26:59;29.30;80.20
4643;DHT22;2334;48.710;9.622;2023-07-20T14:29:27;29.50;79.40
4643;DHT22;2334;48.710;9.622;2023-07-20T14:31:58;30.10;80.50
4643;DHT22;2334;48.710;9.622;2023-07-20T14:34:25;30.50;78.20
4643;DHT22;2334;48.710;9.622;2023-07-20T14:36:52;30.80;77.30
4643;DHT22;2334;48.710;9.622;2023-07-20T14:39:19;30.90;77.10
4643;DHT22;2334;48.710;9.622;2023-07-20T14:41:46;30.70;76.40
4643;DHT22;2334;48.710;9.622;2023-07-20T14:44:13;30.80;76.50
4643;DHT22;2334;48.710;9.622;2023-07-20T14:46:40;30.90;76.60
4643;DHT22;2334;48.710;9.622;2023-07-20T14:49:08;30.90;75.90
4643;DHT22;2334;48.710;9.622;2023-07-20T14:51:36;30.60;75.40
4643;DHT22;2334;48.710;9.622;2023-07-20T14:54:08;30.60;76.60
4643;DHT22;2334;48.710;9.622;2023-07-20T14:56:37;30.80;77.30
4643;DHT22;2334;48.710;9.622;2023-07-20T14:59:04;31.20;75.00
4643;DHT22;2334;48.710;9.622;2023-07-20T15:01:31;30.60;74.90
4643;DHT22;2334;48.710;9.622;2023-07-20T15:03:58;30.10;75.40
4643;DHT22;2334;48.710;9.622;2023-07-20T15:06:27;29.30;76.00
4643;DHT22;2334;48.710;9.622;2023-07-20T15:08:56;29.50;76.50
4643;DHT22;2334;48.710;9.622;2023-07-20T15:11:22;29.50;77.30
4643;DHT22;2334;48.710;9.622;2023-07-20T15:13:49;29.60;77.50
4643;DHT22;2334;48.710;9.622;2023-07-20T15:16:16;29.80;78.20
4643;DHT22;2334;48.710;9.622;2023-07-20T15:18:43;30.70;76.60
4643;DHT22;2334;48.710;9.622;2023-07-20T15:21:10;31.10;75.10
4643;DHT22;2334;48.710;9.622;2023-07-20T15:23:38;31.00;74.10
4643;DHT22;2334;48.710;9.622;2023-07-20T15:26:05;31.00;74.00
4643;DHT22;2334;48.710;9.622;2023-07-20T15:28:32;30.60;73.90
4643;DHT22;2334;48.710;9.622;2023-07-20T15:31:00;30.50;74.70
4643;DHT22;2334;48.710;9.622;2023-07-20T15:33:27;30.50;74.40
4643;DHT22;2334;48.710;9.622;2023-07-20T15:35:54;30.30;74.10
4643;DHT22;2334;48.710;9.622;2023-07-20T15:38:21;30.40;75.10
4643;DHT22;2334;48.710;9.622;2023-07-20T15:40:49;30.90;74.30
4643;DHT22;2334;48.710;9.622;2023-07-20T15:43:16;30.80;72.60
4643;DHT22;2334;48.710;9.622;2023-07-20T15:45:46;30.80;73.60
4643;DHT22;2334;48.710;9.622;2023-07-20T15:48:14;30.80;73.20
4643;DHT22;2334;48.710;9.622;2023-07-20T15:50:42;30.80;73.50
4643;DHT22;2334;48.710;9.622;2023-07-20T15:53:10;31.30;72.50
4643;DHT22;2334;48.710;9.622;2023-07-20T15:55:36;31.80;72.80
4643;DHT22;2334;48.710;9.622;2023-07-20T15:58:05;31.90;71.30
4643;DHT22;2334;48.710;9.622;2023-07-20T16:00:32;32.10;72.60
4643;DHT22;2334;48.710;9.622;2023-07-20T16:02:59;32.10;72.40
4643;DHT22;2334;48.710;9.622;2023-07-20T16:05:26;32.00;72.80
4643;DHT22;2334;48.710;9.622;2023-07-20T16:07:54;32.10;70.20
4643;DHT22;2334;48.710;9.622;2023-07-20T16:10:20;31.70;70.60